Sun River, Montana
Current Conditions -  °F | °C
As of 4:53 PM on Sunday 23 Nov 2014 (Local Time) from KGTF Reporting Station
Overcast Overcast  
Wind Chill: 29°   Ceiling: 11000
Heat Index: 38°   Visibility: 10mi
Dew Point: 21°   Wind: 17mph
Humidity: 51%   Direction: 230°SW
Pressure: 29.83"   Gusts: NA
Location:  47.53°N, 111.73°W
Report Text: KGTF 232353Z 23015KT 10SM OVC110 03/M06 A2983 RMK AO2 SLP132 T00331061 10061 20028 55008
Loading
Personal Weather Stations






























Interactive Weather Map New forecast layout! Learn more

10-Day Weather Forecast

Advertisements
Track Severe Weather on mobile